sensor_id;sensor_type;location;lat;lon;timestamp;P1;durP1;ratioP1;P2;durP2;ratioP2
54259;SDS011;40172;53.022;7.012;2023-07-20T00:01:14;5.82;;;4.70;;
54259;SDS011;40172;53.022;7.012;2023-07-20T00:03:40;8.02;;;5.13;;
54259;SDS011;40172;53.022;7.012;2023-07-20T00:06:05;8.10;;;4.78;;
54259;SDS011;40172;53.022;7.012;2023-07-20T00:08:31;7.40;;;4.55;;
54259;SDS011;40172;53.022;7.012;2023-07-20T00:10:57;5.40;;;3.03;;
54259;SDS011;40172;53.022;7.012;2023-07-20T00:13:23;4.05;;;2.00;;
54259;SDS011;40172;53.022;7.012;2023-07-20T00:15:49;3.65;;;2.00;;
54259;SDS011;40172;53.022;7.012;2023-07-20T00:18:16;2.55;;;1.33;;
54259;SDS011;40172;53.022;7.012;2023-07-20T00:20:41;4.05;;;2.03;;
54259;SDS011;40172;53.022;7.012;2023-07-20T00:23:07;4.72;;;1.52;;
54259;SDS011;40172;53.022;7.012;2023-07-20T00:25:33;2.20;;;1.70;;
54259;SDS011;40172;53.022;7.012;2023-07-20T00:27:59;4.63;;;1.90;;
54259;SDS011;40172;53.022;7.012;2023-07-20T00:30:24;4.07;;;1.92;;
54259;SDS011;40172;53.022;7.012;2023-07-20T00:32:50;3.35;;;1.90;;
54259;SDS011;40172;53.022;7.012;2023-07-20T00:35:16;2.83;;;1.92;;
54259;SDS011;40172;53.022;7.012;2023-07-20T00:37:41;3.88;;;2.05;;
54259;SDS011;40172;53.022;7.012;2023-07-20T00:40:07;5.13;;;2.30;;
54259;SDS011;40172;53.022;7.012;2023-07-20T00:42:33;4.60;;;2.55;;
54259;SDS011;40172;53.022;7.012;2023-07-20T00:44:59;3.42;;;3.00;;
54259;SDS011;40172;53.022;7.012;2023-07-20T00:47:25;7.15;;;3.55;;
54259;SDS011;40172;53.022;7.012;2023-07-20T00:49:52;6.63;;;3.80;;
54259;SDS011;40172;53.022;7.012;2023-07-20T00:52:18;4.75;;;3.35;;
54259;SDS011;40172;53.022;7.012;2023-07-20T00:54:46;4.65;;;3.33;;
54259;SDS011;40172;53.022;7.012;2023-07-20T00:57:15;7.05;;;3.70;;
54259;SDS011;40172;53.022;7.012;2023-07-20T00:59:42;3.97;;;3.47;;
54259;SDS011;40172;53.022;7.012;2023-07-20T01:02:08;5.10;;;4.10;;
54259;SDS011;40172;53.022;7.012;2023-07-20T01:04:34;4.63;;;3.67;;
54259;SDS011;40172;53.022;7.012;2023-07-20T01:07:14;5.45;;;3.97;;
54259;SDS011;40172;53.022;7.012;2023-07-20T01:09:50;5.97;;;3.90;;
54259;SDS011;40172;53.022;7.012;2023-07-20T01:12:46;5.18;;;4.30;;
54259;SDS011;40172;53.022;7.012;2023-07-20T01:15:13;5.82;;;4.00;;
54259;SDS011;40172;53.022;7.012;2023-07-20T01:17:39;4.45;;;3.72;;
54259;SDS011;40172;53.022;7.012;2023-07-20T01:20:05;5.63;;;3.65;;
54259;SDS011;40172;53.022;7.012;2023-07-20T01:30:43;6.80;;;4.25;;
54259;SDS011;40172;53.022;7.012;2023-07-20T01:33:17;6.63;;;4.75;;
54259;SDS011;40172;53.022;7.012;2023-07-20T01:35:47;6.68;;;5.22;;
54259;SDS011;40172;53.022;7.012;2023-07-20T01:38:17;6.90;;;5.15;;
54259;SDS011;40172;53.022;7.012;2023-07-20T01:40:44;8.07;;;5.63;;
54259;SDS011;40172;53.022;7.012;2023-07-20T01:43:10;8.18;;;5.70;;
54259;SDS011;40172;53.022;7.012;2023-07-20T01:45:37;7.60;;;5.75;;
54259;SDS011;40172;53.022;7.012;2023-07-20T01:48:02;7.75;;;6.05;;
54259;SDS011;40172;53.022;7.012;2023-07-20T01:50:29;8.68;;;6.38;;
54259;SDS011;40172;53.022;7.012;2023-07-20T01:52:54;11.05;;;6.82;;
54259;SDS011;40172;53.022;7.012;2023-07-20T01:55:20;9.27;;;6.57;;
54259;SDS011;40172;53.022;7.012;2023-07-20T01:57:45;7.53;;;6.20;;
54259;SDS011;40172;53.022;7.012;2023-07-20T02:00:11;6.68;;;5.82;;
54259;SDS011;40172;53.022;7.012;2023-07-20T02:02:37;7.90;;;6.35;;
54259;SDS011;40172;53.022;7.012;2023-07-20T02:05:02;7.88;;;5.63;;
54259;SDS011;40172;53.022;7.012;2023-07-20T02:07:28;7.75;;;5.15;;
54259;SDS011;40172;53.022;7.012;2023-07-20T02:09:54;9.60;;;4.97;;
54259;SDS011;40172;53.022;7.012;2023-07-20T02:12:19;5.22;;;4.68;;
54259;SDS011;40172;53.022;7.012;2023-07-20T02:14:45;6.90;;;4.45;;
54259;SDS011;40172;53.022;7.012;2023-07-20T02:17:11;6.32;;;4.00;;
54259;SDS011;40172;53.022;7.012;2023-07-20T02:19:36;5.18;;;3.80;;
54259;SDS011;40172;53.022;7.012;2023-07-20T02:22:02;3.92;;;3.63;;
54259;SDS011;40172;53.022;7.012;2023-07-20T02:24:28;4.10;;;3.38;;
54259;SDS011;40172;53.022;7.012;2023-07-20T02:26:53;4.95;;;3.83;;
54259;SDS011;40172;53.022;7.012;2023-07-20T02:29:19;4.28;;;3.45;;
54259;SDS011;40172;53.022;7.012;2023-07-20T02:31:44;6.50;;;3.50;;
54259;SDS011;40172;53.022;7.012;2023-07-20T02:34:10;5.72;;;3.35;;
54259;SDS011;40172;53.022;7.012;2023-07-20T02:36:35;6.05;;;3.40;;
54259;SDS011;40172;53.022;7.012;2023-07-20T02:39:01;4.80;;;3.42;;
54259;SDS011;40172;53.022;7.012;2023-07-20T02:41:32;5.07;;;3.60;;
54259;SDS011;40172;53.022;7.012;2023-07-20T02:43:58;5.32;;;3.88;;
54259;SDS011;40172;53.022;7.012;2023-07-20T02:46:25;5.20;;;4.15;;
54259;SDS011;40172;53.022;7.012;2023-07-20T02:48:50;5.03;;;4.10;;
54259;SDS011;40172;53.022;7.012;2023-07-20T02:51:16;6.93;;;4.43;;
54259;SDS011;40172;53.022;7.012;2023-07-20T02:53:41;6.65;;;4.53;;
54259;SDS011;40172;53.022;7.012;2023-07-20T02:56:07;5.70;;;4.72;;
54259;SDS011;40172;53.022;7.012;2023-07-20T02:58:34;6.32;;;4.60;;
54259;SDS011;40172;53.022;7.012;2023-07-20T03:01:03;7.10;;;5.38;;
54259;SDS011;40172;53.022;7.012;2023-07-20T03:03:29;6.78;;;5.25;;
54259;SDS011;40172;53.022;7.012;2023-07-20T03:05:54;8.02;;;5.30;;
54259;SDS011;40172;53.022;7.012;2023-07-20T03:08:24;6.97;;;5.70;;
54259;SDS011;40172;53.022;7.012;2023-07-20T03:10:49;8.27;;;6.10;;
54259;SDS011;40172;53.022;7.012;2023-07-20T03:13:15;8.73;;;6.90;;
54259;SDS011;40172;53.022;7.012;2023-07-20T03:15:41;8.07;;;7.05;;
54259;SDS011;40172;53.022;7.012;2023-07-20T03:18:06;12.32;;;6.97;;
54259;SDS011;40172;53.022;7.012;2023-07-20T03:20:32;9.52;;;7.50;;
54259;SDS011;40172;53.022;7.012;2023-07-20T03:22:57;10.90;;;8.25;;
54259;SDS011;40172;53.022;7.012;2023-07-20T03:25:23;9.63;;;7.85;;
54259;SDS011;40172;53.022;7.012;2023-07-20T03:27:49;10.70;;;7.75;;
54259;SDS011;40172;53.022;7.012;2023-07-20T03:30:14;12.48;;;8.18;;
54259;SDS011;40172;53.022;7.012;2023-07-20T03:32:40;17.23;;;9.60;;
54259;SDS011;40172;53.022;7.012;2023-07-20T03:35:06;11.27;;;8.25;;
54259;SDS011;40172;53.022;7.012;2023-07-20T03:37:31;10.35;;;8.57;;
54259;SDS011;40172;53.022;7.012;2023-07-20T03:39:59;11.13;;;8.73;;
54259;SDS011;40172;53.022;7.012;2023-07-20T03:42:25;13.50;;;9.60;;
54259;SDS011;40172;53.022;7.012;2023-07-20T03:44:51;12.68;;;9.32;;
54259;SDS011;40172;53.022;7.012;2023-07-20T03:47:16;13.48;;;9.48;;
54259;SDS011;40172;53.022;7.012;2023-07-20T03:49:42;12.25;;;9.85;;
54259;SDS011;40172;53.022;7.012;2023-07-20T03:52:07;13.80;;;9.90;;
54259;SDS011;40172;53.022;7.012;2023-07-20T03:54:33;10.77;;;9.68;;
54259;SDS011;40172;53.022;7.012;2023-07-20T03:56:59;13.93;;;10.45;;
54259;SDS011;40172;53.022;7.012;2023-07-20T03:59:25;15.95;;;10.35;;
54259;SDS011;40172;53.022;7.012;2023-07-20T04:01:51;11.02;;;9.25;;
54259;SDS011;40172;53.022;7.012;2023-07-20T04:04:16;11.85;;;9.70;;
54259;SDS011;40172;53.022;7.012;2023-07-20T04:06:42;12.38;;;9.45;;
54259;SDS011;40172;53.022;7.012;2023-07-20T04:09:11;10.93;;;9.73;;
54259;SDS011;40172;53.022;7.012;2023-07-20T04:11:37;11.77;;;8.98;;
54259;SDS011;40172;53.022;7.012;2023-07-20T04:14:03;11.25;;;9.45;;
54259;SDS011;40172;53.022;7.012;2023-07-20T04:16:29;3.38;;;2.58;;
54259;SDS011;40172;53.022;7.012;2023-07-20T04:18:55;17.55;;;9.85;;
54259;SDS011;40172;53.022;7.012;2023-07-20T04:21:21;8.48;;;4.70;;
54259;SDS011;40172;53.022;7.012;2023-07-20T04:23:47;5.43;;;3.65;;
54259;SDS011;40172;53.022;7.012;2023-07-20T04:26:13;5.18;;;3.45;;
54259;SDS011;40172;53.022;7.012;2023-07-20T04:28:40;11.88;;;9.25;;
54259;SDS011;40172;53.022;7.012;2023-07-20T04:31:14;9.80;;;8.70;;
54259;SDS011;40172;53.022;7.012;2023-07-20T04:33:41;12.05;;;9.27;;
54259;SDS011;40172;53.022;7.012;2023-07-20T04:36:06;11.00;;;8.90;;
54259;SDS011;40172;53.022;7.012;2023-07-20T04:38:33;5.05;;;3.42;;
54259;SDS011;40172;53.022;7.012;2023-07-20T04:40:59;9.93;;;8.25;;
54259;SDS011;40172;53.022;7.012;2023-07-20T04:43:24;5.05;;;3.20;;
54259;SDS011;40172;53.022;7.012;2023-07-20T04:45:50;8.73;;;7.63;;
54259;SDS011;40172;53.022;7.012;2023-07-20T04:48:16;5.63;;;3.20;;
54259;SDS011;40172;53.022;7.012;2023-07-20T04:50:42;5.38;;;3.30;;
54259;SDS011;40172;53.022;7.012;2023-07-20T04:53:10;3.90;;;2.58;;
54259;SDS011;40172;53.022;7.012;2023-07-20T04:55:37;3.50;;;2.55;;
54259;SDS011;40172;53.022;7.012;2023-07-20T04:58:04;8.77;;;7.55;;
54259;SDS011;40172;53.022;7.012;2023-07-20T05:00:31;8.65;;;7.82;;
54259;SDS011;40172;53.022;7.012;2023-07-20T05:02:58;8.52;;;7.25;;
54259;SDS011;40172;53.022;7.012;2023-07-20T05:05:23;8.23;;;7.30;;
54259;SDS011;40172;53.022;7.012;2023-07-20T05:07:49;10.10;;;6.72;;
54259;SDS011;40172;53.022;7.012;2023-07-20T05:10:15;7.55;;;6.60;;
54259;SDS011;40172;53.022;7.012;2023-07-20T05:12:41;11.82;;;7.05;;
54259;SDS011;40172;53.022;7.012;2023-07-20T05:15:06;8.02;;;5.97;;
54259;SDS011;40172;53.022;7.012;2023-07-20T05:17:32;7.38;;;6.40;;
54259;SDS011;40172;53.022;7.012;2023-07-20T05:19:58;9.43;;;5.95;;
54259;SDS011;40172;53.022;7.012;2023-07-20T05:22:23;7.25;;;5.68;;
54259;SDS011;40172;53.022;7.012;2023-07-20T05:24:49;5.90;;;5.22;;
54259;SDS011;40172;53.022;7.012;2023-07-20T05:27:15;6.60;;;5.30;;
54259;SDS011;40172;53.022;7.012;2023-07-20T05:29:44;9.15;;;5.30;;
54259;SDS011;40172;53.022;7.012;2023-07-20T05:32:10;6.75;;;5.25;;
54259;SDS011;40172;53.022;7.012;2023-07-20T05:34:36;8.60;;;5.00;;
54259;SDS011;40172;53.022;7.012;2023-07-20T05:37:02;9.68;;;4.38;;
54259;SDS011;40172;53.022;7.012;2023-07-20T05:39:27;5.43;;;4.43;;
54259;SDS011;40172;53.022;7.012;2023-07-20T05:41:53;7.32;;;4.40;;
54259;SDS011;40172;53.022;7.012;2023-07-20T05:44:18;6.38;;;4.13;;
54259;SDS011;40172;53.022;7.012;2023-07-20T05:46:44;7.97;;;4.00;;
54259;SDS011;40172;53.022;7.012;2023-07-20T05:49:09;7.65;;;3.80;;
54259;SDS011;40172;53.022;7.012;2023-07-20T05:51:35;5.93;;;3.60;;
54259;SDS011;40172;53.022;7.012;2023-07-20T05:54:01;5.50;;;3.00;;
54259;SDS011;40172;53.022;7.012;2023-07-20T05:56:27;4.45;;;3.17;;
54259;SDS011;40172;53.022;7.012;2023-07-20T05:58:52;5.72;;;2.90;;
54259;SDS011;40172;53.022;7.012;2023-07-20T06:01:18;5.47;;;2.90;;
54259;SDS011;40172;53.022;7.012;2023-07-20T06:03:44;4.05;;;2.80;;
54259;SDS011;40172;53.022;7.012;2023-07-20T06:06:09;5.57;;;3.00;;
54259;SDS011;40172;53.022;7.012;2023-07-20T06:08:37;5.18;;;2.60;;
54259;SDS011;40172;53.022;7.012;2023-07-20T06:11:02;4.82;;;2.35;;
54259;SDS011;40172;53.022;7.012;2023-07-20T06:13:28;3.72;;;2.40;;
54259;SDS011;40172;53.022;7.012;2023-07-20T06:15:54;3.22;;;2.30;;
54259;SDS011;40172;53.022;7.012;2023-07-20T06:18:21;3.67;;;2.45;;
54259;SDS011;40172;53.022;7.012;2023-07-20T06:20:50;4.43;;;2.22;;
54259;SDS011;40172;53.022;7.012;2023-07-20T06:23:16;7.47;;;2.45;;
54259;SDS011;40172;53.022;7.012;2023-07-20T06:25:43;7.32;;;2.47;;
54259;SDS011;40172;53.022;7.012;2023-07-20T06:28:09;5.65;;;2.13;;
54259;SDS011;40172;53.022;7.012;2023-07-20T06:30:34;4.47;;;2.33;;
54259;SDS011;40172;53.022;7.012;2023-07-20T06:33:00;3.60;;;1.88;;
54259;SDS011;40172;53.022;7.012;2023-07-20T06:35:26;4.43;;;1.92;;
54259;SDS011;40172;53.022;7.012;2023-07-20T06:37:51;6.72;;;1.70;;
54259;SDS011;40172;53.022;7.012;2023-07-20T06:40:17;5.95;;;2.10;;
54259;SDS011;40172;53.022;7.012;2023-07-20T06:42:43;6.95;;;2.17;;
54259;SDS011;40172;53.022;7.012;2023-07-20T06:45:09;5.10;;;1.63;;
54259;SDS011;40172;53.022;7.012;2023-07-20T06:47:37;6.15;;;1.50;;
54259;SDS011;40172;53.022;7.012;2023-07-20T06:50:03;8.88;;;1.85;;
54259;SDS011;40172;53.022;7.012;2023-07-20T06:52:29;5.25;;;1.52;;
54259;SDS011;40172;53.022;7.012;2023-07-20T06:54:55;6.07;;;1.50;;
54259;SDS011;40172;53.022;7.012;2023-07-20T06:57:21;5.40;;;1.40;;
54259;SDS011;40172;53.022;7.012;2023-07-20T06:59:46;4.45;;;1.20;;
54259;SDS011;40172;53.022;7.012;2023-07-20T07:02:13;6.03;;;2.22;;
54259;SDS011;40172;53.022;7.012;2023-07-20T07:04:39;4.60;;;1.40;;
54259;SDS011;40172;53.022;7.012;2023-07-20T07:07:05;2.97;;;1.40;;
54259;SDS011;40172;53.022;7.012;2023-07-20T07:09:30;8.20;;;1.73;;
54259;SDS011;40172;53.022;7.012;2023-07-20T07:11:56;6.25;;;1.45;;
54259;SDS011;40172;53.022;7.012;2023-07-20T07:14:22;3.38;;;1.10;;
54259;SDS011;40172;53.022;7.012;2023-07-20T07:16:47;5.05;;;1.25;;
54259;SDS011;40172;53.022;7.012;2023-07-20T07:19:13;7.95;;;1.58;;
54259;SDS011;40172;53.022;7.012;2023-07-20T07:21:39;3.45;;;1.10;;
54259;SDS011;40172;53.022;7.012;2023-07-20T07:24:04;4.35;;;1.20;;
54259;SDS011;40172;53.022;7.012;2023-07-20T07:26:32;5.50;;;1.20;;
54259;SDS011;40172;53.022;7.012;2023-07-20T07:28:58;4.32;;;1.20;;
54259;SDS011;40172;53.022;7.012;2023-07-20T07:31:24;4.57;;;1.38;;
54259;SDS011;40172;53.022;7.012;2023-07-20T07:33:50;3.83;;;1.30;;
54259;SDS011;40172;53.022;7.012;2023-07-20T07:36:16;5.43;;;1.30;;
54259;SDS011;40172;53.022;7.012;2023-07-20T07:38:42;5.65;;;1.40;;
54259;SDS011;40172;53.022;7.012;2023-07-20T07:41:08;3.13;;;1.20;;
54259;SDS011;40172;53.022;7.012;2023-07-20T07:43:33;5.93;;;1.80;;
54259;SDS011;40172;53.022;7.012;2023-07-20T07:46:00;5.88;;;1.50;;
54259;SDS011;40172;53.022;7.012;2023-07-20T07:48:26;5.55;;;1.40;;
54259;SDS011;40172;53.022;7.012;2023-07-20T07:50:53;3.45;;;1.30;;
54259;SDS011;40172;53.022;7.012;2023-07-20T07:53:18;3.83;;;1.40;;
54259;SDS011;40172;53.022;7.012;2023-07-20T07:55:45;3.28;;;1.40;;
54259;SDS011;40172;53.022;7.012;2023-07-20T07:58:14;4.47;;;1.38;;
54259;SDS011;40172;53.022;7.012;2023-07-20T08:00:39;9.00;;;1.60;;
54259;SDS011;40172;53.022;7.012;2023-07-20T08:03:08;5.20;;;1.67;;
54259;SDS011;40172;53.022;7.012;2023-07-20T08:05:34;5.75;;;1.92;;
54259;SDS011;40172;53.022;7.012;2023-07-20T08:08:02;33.92;;;6.22;;
54259;SDS011;40172;53.022;7.012;2023-07-20T08:10:31;40.75;;;4.20;;
54259;SDS011;40172;53.022;7.012;2023-07-20T08:12:57;8.32;;;1.55;;
54259;SDS011;40172;53.022;7.012;2023-07-20T08:15:22;5.28;;;1.48;;
54259;SDS011;40172;53.022;7.012;2023-07-20T08:17:48;6.05;;;1.50;;
54259;SDS011;40172;53.022;7.012;2023-07-20T08:20:16;3.25;;;1.30;;
54259;SDS011;40172;53.022;7.012;2023-07-20T08:22:42;3.28;;;1.33;;
54259;SDS011;40172;53.022;7.012;2023-07-20T08:25:08;5.10;;;1.40;;
54259;SDS011;40172;53.022;7.012;2023-07-20T08:27:34;4.70;;;1.42;;
54259;SDS011;40172;53.022;7.012;2023-07-20T08:30:01;4.60;;;1.38;;
54259;SDS011;40172;53.022;7.012;2023-07-20T08:32:27;4.80;;;1.38;;
54259;SDS011;40172;53.022;7.012;2023-07-20T08:34:53;6.93;;;1.60;;
54259;SDS011;40172;53.022;7.012;2023-07-20T08:37:18;3.95;;;1.35;;
54259;SDS011;40172;53.022;7.012;2023-07-20T08:39:44;5.60;;;1.50;;
54259;SDS011;40172;53.022;7.012;2023-07-20T08:42:10;3.92;;;1.42;;
54259;SDS011;40172;53.022;7.012;2023-07-20T08:44:37;8.73;;;1.63;;
54259;SDS011;40172;53.022;7.012;2023-07-20T08:47:04;4.78;;;1.60;;
54259;SDS011;40172;53.022;7.012;2023-07-20T08:49:32;6.28;;;1.95;;
54259;SDS011;40172;53.022;7.012;2023-07-20T08:51:59;5.88;;;1.75;;
54259;SDS011;40172;53.022;7.012;2023-07-20T08:54:27;5.50;;;1.80;;
54259;SDS011;40172;53.022;7.012;2023-07-20T08:56:57;4.75;;;1.92;;
54259;SDS011;40172;53.022;7.012;2023-07-20T08:59:25;4.22;;;1.70;;
54259;SDS011;40172;53.022;7.012;2023-07-20T09:01:51;9.02;;;1.80;;
54259;SDS011;40172;53.022;7.012;2023-07-20T09:04:19;4.72;;;1.70;;
54259;SDS011;40172;53.022;7.012;2023-07-20T09:06:44;4.28;;;1.55;;
54259;SDS011;40172;53.022;7.012;2023-07-20T09:09:10;9.13;;;1.80;;
54259;SDS011;40172;53.022;7.012;2023-07-20T09:11:36;3.67;;;1.58;;
54259;SDS011;40172;53.022;7.012;2023-07-20T09:14:03;4.57;;;1.92;;
54259;SDS011;40172;53.022;7.012;2023-07-20T09:16:29;5.13;;;1.73;;
54259;SDS011;40172;53.022;7.012;2023-07-20T09:18:57;3.55;;;1.50;;
54259;SDS011;40172;53.022;7.012;2023-07-20T09:21:23;5.72;;;1.70;;
54259;SDS011;40172;53.022;7.012;2023-07-20T09:23:53;5.03;;;1.60;;
54259;SDS011;40172;53.022;7.012;2023-07-20T09:26:21;5.47;;;1.83;;
54259;SDS011;40172;53.022;7.012;2023-07-20T09:28:48;15.10;;;3.15;;
54259;SDS011;40172;53.022;7.012;2023-07-20T09:31:17;6.50;;;2.20;;
54259;SDS011;40172;53.022;7.012;2023-07-20T09:33:44;7.07;;;1.85;;
54259;SDS011;40172;53.022;7.012;2023-07-20T09:36:10;3.75;;;1.80;;
54259;SDS011;40172;53.022;7.012;2023-07-20T09:38:36;5.82;;;1.90;;
54259;SDS011;40172;53.022;7.012;2023-07-20T09:41:04;6.82;;;2.17;;
54259;SDS011;40172;53.022;7.012;2023-07-20T09:43:30;9.68;;;1.98;;
54259;SDS011;40172;53.022;7.012;2023-07-20T09:45:57;10.10;;;2.55;;
54259;SDS011;40172;53.022;7.012;2023-07-20T09:48:24;6.97;;;1.80;;
54259;SDS011;40172;53.022;7.012;2023-07-20T09:50:51;5.47;;;1.88;;
54259;SDS011;40172;53.022;7.012;2023-07-20T09:53:17;8.48;;;2.55;;
54259;SDS011;40172;53.022;7.012;2023-07-20T09:55:43;7.53;;;2.15;;
54259;SDS011;40172;53.022;7.012;2023-07-20T09:58:10;5.20;;;1.60;;
54259;SDS011;40172;53.022;7.012;2023-07-20T10:00:36;4.70;;;1.80;;
54259;SDS011;40172;53.022;7.012;2023-07-20T10:03:06;4.38;;;1.90;;
54259;SDS011;40172;53.022;7.012;2023-07-20T10:05:35;8.23;;;1.63;;
54259;SDS011;40172;53.022;7.012;2023-07-20T10:08:04;3.95;;;1.73;;
54259;SDS011;40172;53.022;7.012;2023-07-20T10:10:33;6.30;;;1.92;;
54259;SDS011;40172;53.022;7.012;2023-07-20T10:13:00;7.45;;;2.17;;
54259;SDS011;40172;53.022;7.012;2023-07-20T10:15:36;7.95;;;1.98;;
54259;SDS011;40172;53.022;7.012;2023-07-20T10:20:42;7.25;;;2.50;;
54259;SDS011;40172;53.022;7.012;2023-07-20T10:23:11;9.38;;;2.70;;
54259;SDS011;40172;53.022;7.012;2023-07-20T10:25:37;4.63;;;1.98;;
54259;SDS011;40172;53.022;7.012;2023-07-20T10:28:06;6.30;;;1.88;;
54259;SDS011;40172;53.022;7.012;2023-07-20T10:30:35;5.70;;;1.83;;
54259;SDS011;40172;53.022;7.012;2023-07-20T10:33:02;4.60;;;1.63;;
54259;SDS011;40172;53.022;7.012;2023-07-20T10:35:29;8.90;;;1.95;;
54259;SDS011;40172;53.022;7.012;2023-07-20T10:38:04;3.67;;;1.65;;
54259;SDS011;40172;53.022;7.012;2023-07-20T10:40:30;4.40;;;1.67;;
54259;SDS011;40172;53.022;7.012;2023-07-20T10:42:57;3.58;;;1.42;;
54259;SDS011;40172;53.022;7.012;2023-07-20T10:45:32;7.00;;;1.70;;
54259;SDS011;40172;53.022;7.012;2023-07-20T10:50:48;5.47;;;1.88;;
54259;SDS011;40172;53.022;7.012;2023-07-20T10:53:45;6.13;;;1.50;;
54259;SDS011;40172;53.022;7.012;2023-07-20T10:56:23;3.70;;;1.48;;
54259;SDS011;40172;53.022;7.012;2023-07-20T10:58:54;5.38;;;1.42;;
54259;SDS011;40172;53.022;7.012;2023-07-20T11:01:27;3.20;;;1.20;;
54259;SDS011;40172;53.022;7.012;2023-07-20T11:03:57;5.03;;;1.35;;
54259;SDS011;40172;53.022;7.012;2023-07-20T11:11:33;5.85;;;1.17;;
54259;SDS011;40172;53.022;7.012;2023-07-20T11:14:02;4.63;;;1.38;;
54259;SDS011;40172;53.022;7.012;2023-07-20T11:16:33;4.55;;;1.30;;
54259;SDS011;40172;53.022;7.012;2023-07-20T11:18:58;4.07;;;1.40;;
54259;SDS011;40172;53.022;7.012;2023-07-20T11:21:24;3.47;;;1.00;;
54259;SDS011;40172;53.022;7.012;2023-07-20T11:23:51;2.60;;;1.10;;
54259;SDS011;40172;53.022;7.012;2023-07-20T11:26:17;3.80;;;1.27;;
54259;SDS011;40172;53.022;7.012;2023-07-20T11:28:48;4.15;;;1.30;;
54259;SDS011;40172;53.022;7.012;2023-07-20T11:31:17;4.35;;;1.38;;
54259;SDS011;40172;53.022;7.012;2023-07-20T11:33:43;5.40;;;1.40;;
54259;SDS011;40172;53.022;7.012;2023-07-20T11:36:09;4.22;;;1.25;;
54259;SDS011;40172;53.022;7.012;2023-07-20T11:38:35;2.10;;;1.05;;
54259;SDS011;40172;53.022;7.012;2023-07-20T11:41:02;3.05;;;1.20;;
54259;SDS011;40172;53.022;7.012;2023-07-20T11:43:28;3.08;;;1.30;;
54259;SDS011;40172;53.022;7.012;2023-07-20T11:45:55;4.32;;;1.00;;
54259;SDS011;40172;53.022;7.012;2023-07-20T11:48:21;3.30;;;0.90;;
54259;SDS011;40172;53.022;7.012;2023-07-20T11:50:47;2.65;;;1.10;;
54259;SDS011;40172;53.022;7.012;2023-07-20T11:53:13;2.65;;;1.15;;
54259;SDS011;40172;53.022;7.012;2023-07-20T11:55:40;1.75;;;1.00;;
54259;SDS011;40172;53.022;7.012;2023-07-20T11:58:06;3.40;;;1.00;;
54259;SDS011;40172;53.022;7.012;2023-07-20T12:00:33;4.88;;;1.20;;
54259;SDS011;40172;53.022;7.012;2023-07-20T12:03:00;4.72;;;1.20;;
54259;SDS011;40172;53.022;7.012;2023-07-20T12:05:25;5.00;;;1.10;;
54259;SDS011;40172;53.022;7.012;2023-07-20T12:07:51;3.35;;;1.00;;
54259;SDS011;40172;53.022;7.012;2023-07-20T12:10:23;3.80;;;1.20;;
54259;SDS011;40172;53.022;7.012;2023-07-20T12:12:51;2.92;;;1.27;;
54259;SDS011;40172;53.022;7.012;2023-07-20T12:17:46;5.90;;;1.38;;
54259;SDS011;40172;53.022;7.012;2023-07-20T12:20:24;4.72;;;1.27;;
54259;SDS011;40172;53.022;7.012;2023-07-20T12:22:55;4.15;;;1.30;;
54259;SDS011;40172;53.022;7.012;2023-07-20T12:25:44;3.10;;;1.23;;
54259;SDS011;40172;53.022;7.012;2023-07-20T12:28:15;2.58;;;1.23;;
54259;SDS011;40172;53.022;7.012;2023-07-20T12:30:43;4.32;;;1.10;;
54259;SDS011;40172;53.022;7.012;2023-07-20T12:33:09;2.72;;;1.30;;
54259;SDS011;40172;53.022;7.012;2023-07-20T12:35:35;3.90;;;1.10;;
54259;SDS011;40172;53.022;7.012;2023-07-20T12:38:01;3.55;;;1.30;;
54259;SDS011;40172;53.022;7.012;2023-07-20T12:40:26;3.28;;;1.17;;
54259;SDS011;40172;53.022;7.012;2023-07-20T12:42:52;3.50;;;1.10;;
54259;SDS011;40172;53.022;7.012;2023-07-20T12:45:18;2.78;;;1.20;;
54259;SDS011;40172;53.022;7.012;2023-07-20T12:47:43;2.22;;;1.13;;
54259;SDS011;40172;53.022;7.012;2023-07-20T12:50:10;3.85;;;1.00;;
54259;SDS011;40172;53.022;7.012;2023-07-20T12:52:36;6.57;;;1.23;;
54259;SDS011;40172;53.022;7.012;2023-07-20T12:55:03;3.65;;;1.10;;
54259;SDS011;40172;53.022;7.012;2023-07-20T12:57:30;2.08;;;1.00;;
54259;SDS011;40172;53.022;7.012;2023-07-20T12:59:55;3.80;;;1.17;;
54259;SDS011;40172;53.022;7.012;2023-07-20T13:02:21;4.38;;;1.38;;
54259;SDS011;40172;53.022;7.012;2023-07-20T13:04:47;2.97;;;1.27;;
54259;SDS011;40172;53.022;7.012;2023-07-20T13:07:12;3.08;;;1.23;;
54259;SDS011;40172;53.022;7.012;2023-07-20T13:09:38;3.90;;;1.10;;
54259;SDS011;40172;53.022;7.012;2023-07-20T13:12:03;3.72;;;1.20;;
54259;SDS011;40172;53.022;7.012;2023-07-20T13:14:29;2.80;;;1.17;;
54259;SDS011;40172;53.022;7.012;2023-07-20T13:16:55;2.22;;;0.95;;
54259;SDS011;40172;53.022;7.012;2023-07-20T13:19:21;4.35;;;1.42;;
54259;SDS011;40172;53.022;7.012;2023-07-20T13:21:47;4.63;;;1.00;;
54259;SDS011;40172;53.022;7.012;2023-07-20T13:24:13;2.95;;;1.10;;
54259;SDS011;40172;53.022;7.012;2023-07-20T13:26:38;5.43;;;1.48;;
54259;SDS011;40172;53.022;7.012;2023-07-20T13:29:04;3.15;;;1.20;;
54259;SDS011;40172;53.022;7.012;2023-07-20T13:31:30;5.07;;;1.30;;
54259;SDS011;40172;53.022;7.012;2023-07-20T13:33:56;6.03;;;1.50;;
54259;SDS011;40172;53.022;7.012;2023-07-20T13:36:21;3.85;;;1.30;;
54259;SDS011;40172;53.022;7.012;2023-07-20T13:38:48;2.55;;;1.08;;
54259;SDS011;40172;53.022;7.012;2023-07-20T13:41:13;2.95;;;1.23;;
54259;SDS011;40172;53.022;7.012;2023-07-20T13:43:41;4.32;;;1.15;;
54259;SDS011;40172;53.022;7.012;2023-07-20T13:46:07;4.20;;;1.20;;
54259;SDS011;40172;53.022;7.012;2023-07-20T13:48:33;4.47;;;1.27;;
54259;SDS011;40172;53.022;7.012;2023-07-20T13:50:58;5.07;;;1.48;;
54259;SDS011;40172;53.022;7.012;2023-07-20T13:53:24;1.63;;;0.90;;
54259;SDS011;40172;53.022;7.012;2023-07-20T13:55:49;3.47;;;1.10;;
54259;SDS011;40172;53.022;7.012;2023-07-20T13:58:15;4.57;;;1.08;;
54259;SDS011;40172;53.022;7.012;2023-07-20T14:00:41;3.50;;;1.17;;
54259;SDS011;40172;53.022;7.012;2023-07-20T14:03:06;2.42;;;1.17;;
54259;SDS011;40172;53.022;7.012;2023-07-20T14:05:33;3.55;;;1.10;;
54259;SDS011;40172;53.022;7.012;2023-07-20T14:07:58;2.83;;;1.27;;
54259;SDS011;40172;53.022;7.012;2023-07-20T14:10:24;4.60;;;1.30;;
54259;SDS011;40172;53.022;7.012;2023-07-20T14:12:50;4.60;;;1.10;;
54259;SDS011;40172;53.022;7.012;2023-07-20T14:15:15;4.70;;;1.10;;
54259;SDS011;40172;53.022;7.012;2023-07-20T14:17:42;2.60;;;1.20;;
54259;SDS011;40172;53.022;7.012;2023-07-20T14:20:08;7.40;;;1.42;;
54259;SDS011;40172;53.022;7.012;2023-07-20T14:22:34;3.85;;;1.30;;
54259;SDS011;40172;53.022;7.012;2023-07-20T14:24:59;5.47;;;1.67;;
54259;SDS011;40172;53.022;7.012;2023-07-20T14:27:25;3.85;;;1.20;;
54259;SDS011;40172;53.022;7.012;2023-07-20T14:29:51;7.80;;;1.50;;
54259;SDS011;40172;53.022;7.012;2023-07-20T14:32:18;2.60;;;0.82;;
54259;SDS011;40172;53.022;7.012;2023-07-20T14:34:43;4.55;;;1.38;;
54259;SDS011;40172;53.022;7.012;2023-07-20T14:37:09;6.22;;;1.85;;
54259;SDS011;40172;53.022;7.012;2023-07-20T14:39:35;4.00;;;1.33;;
54259;SDS011;40172;53.022;7.012;2023-07-20T14:42:00;4.03;;;1.00;;
54259;SDS011;40172;53.022;7.012;2023-07-20T14:44:27;5.38;;;1.10;;
54259;SDS011;40172;53.022;7.012;2023-07-20T14:46:52;5.63;;;1.30;;
54259;SDS011;40172;53.022;7.012;2023-07-20T14:49:18;6.30;;;1.10;;
54259;SDS011;40172;53.022;7.012;2023-07-20T14:51:43;7.38;;;1.50;;
54259;SDS011;40172;53.022;7.012;2023-07-20T14:54:11;3.17;;;1.08;;
54259;SDS011;40172;53.022;7.012;2023-07-20T14:56:38;2.63;;;1.00;;
54259;SDS011;40172;53.022;7.012;2023-07-20T14:59:04;2.55;;;1.05;;
54259;SDS011;40172;53.022;7.012;2023-07-20T15:01:31;1.52;;;0.95;;
54259;SDS011;40172;53.022;7.012;2023-07-20T15:03:58;3.95;;;1.15;;